createdAt,value
2023-03-06T00:01:32.831Z,6.73
2023-03-06T00:04:01.132Z,7.10
2023-03-06T00:06:29.437Z,8.03
2023-03-06T00:08:57.812Z,7.40
2023-03-06T00:11:26.073Z,7.37
2023-03-06T00:13:54.379Z,7.90
2023-03-06T00:16:23.206Z,7.13
2023-03-06T00:18:52.938Z,7.90
2023-03-06T00:21:21.244Z,7.67
2023-03-06T00:23:49.564Z,7.53
2023-03-06T00:26:17.856Z,6.57
2023-03-06T00:28:46.639Z,7.53
2023-03-06T00:31:15.259Z,7.20
2023-03-06T00:33:43.788Z,7.43
2023-03-06T00:36:13.524Z,7.67
2023-03-06T00:38:42.602Z,8.60
2023-03-06T00:41:12.270Z,8.60
2023-03-06T00:43:40.723Z,10.30
2023-03-06T00:46:09.859Z,10.30
2023-03-06T00:48:38.460Z,10.40
2023-03-06T00:51:07.256Z,10.27
2023-03-06T00:53:36.948Z,9.27
2023-03-06T00:56:05.460Z,9.80
2023-03-06T00:58:33.749Z,9.43
2023-03-06T01:01:02.145Z,10.10
2023-03-06T01:03:30.447Z,8.33
2023-03-06T01:05:59.141Z,9.77
2023-03-06T01:08:27.774Z,9.90
2023-03-06T01:10:59.724Z,10.80
2023-03-06T01:13:31.061Z,8.50
2023-03-06T01:16:08.028Z,9.20
2023-03-06T01:18:36.366Z,9.43
2023-03-06T01:21:04.990Z,9.00
2023-03-06T01:23:34.651Z,8.97
2023-03-06T01:26:04.720Z,8.90
2023-03-06T01:28:35.148Z,9.17
2023-03-06T01:31:04.330Z,9.50
2023-03-06T01:33:33.058Z,8.63
2023-03-06T01:36:01.722Z,10.10
2023-03-06T01:38:29.970Z,10.73
2023-03-06T01:40:58.211Z,11.43
2023-03-06T01:43:36.200Z,10.60
2023-03-06T01:46:29.537Z,10.60
2023-03-06T01:49:00.181Z,11.37
2023-03-06T01:51:32.372Z,11.27
2023-03-06T01:54:03.500Z,11.50
2023-03-06T01:56:43.371Z,11.77
2023-03-06T01:59:14.273Z,12.83
2023-03-06T02:01:44.565Z,12.23
2023-03-06T02:04:13.635Z,13.07
2023-03-06T02:06:44.234Z,12.60
2023-03-06T02:09:14.603Z,12.97
2023-03-06T02:11:44.216Z,11.30
2023-03-06T02:14:16.900Z,12.13
2023-03-06T02:16:45.730Z,13.27
2023-03-06T02:19:25.567Z,13.53
2023-03-06T02:21:53.829Z,13.03
2023-03-06T02:24:32.379Z,14.47
2023-03-06T02:27:05.374Z,13.80
2023-03-06T02:29:34.035Z,13.93
2023-03-06T02:32:05.068Z,13.10
2023-03-06T02:34:56.131Z,14.60
2023-03-06T02:37:26.449Z,13.90
2023-03-06T02:40:02.142Z,13.90
2023-03-06T02:42:32.157Z,14.30
2023-03-06T02:45:03.438Z,13.57
2023-03-06T02:47:31.970Z,13.33
2023-03-06T02:50:00.858Z,13.60
2023-03-06T02:52:29.222Z,13.50
2023-03-06T02:54:57.767Z,13.20
2023-03-06T02:57:26.246Z,13.80
2023-03-06T02:59:56.135Z,12.33
2023-03-06T03:02:24.769Z,13.17
2023-03-06T03:04:53.437Z,12.50
2023-03-06T03:07:21.910Z,13.13
2023-03-06T03:09:50.812Z,12.77
2023-03-06T03:12:19.131Z,12.40
2023-03-06T03:14:47.401Z,12.27
2023-03-06T03:17:17.392Z,11.17
2023-03-06T03:19:47.790Z,11.50
2023-03-06T03:22:17.396Z,11.63
2023-03-06T03:24:45.787Z,13.20
2023-03-06T03:27:14.960Z,11.90
2023-03-06T03:29:43.768Z,12.50
2023-03-06T03:32:12.446Z,11.73
2023-03-06T03:34:44.445Z,12.30
2023-03-06T03:37:12.711Z,12.70
2023-03-06T03:39:43.658Z,13.70
2023-03-06T03:42:13.468Z,12.43
2023-03-06T03:44:41.986Z,15.20
2023-03-06T03:47:10.432Z,14.40
2023-03-06T03:49:38.733Z,14.93
2023-03-06T03:52:08.888Z,13.60
2023-03-06T03:54:38.788Z,13.53
2023-03-06T03:57:10.228Z,12.73
2023-03-06T03:59:42.620Z,13.80
2023-03-06T04:02:29.342Z,14.10
2023-03-06T04:05:16.620Z,14.20
2023-03-06T04:07:46.475Z,15.53
2023-03-06T04:10:16.463Z,16.97
2023-03-06T04:12:45.372Z,17.57
2023-03-06T04:15:14.050Z,17.37
2023-03-06T04:17:42.741Z,17.90
2023-03-06T04:20:16.111Z,17.20
2023-03-06T04:22:46.723Z,18.13
2023-03-06T04:25:15.325Z,18.43
2023-03-06T04:27:43.598Z,18.10
2023-03-06T04:30:13.711Z,17.97
2023-03-06T04:32:42.571Z,16.73
2023-03-06T04:35:12.060Z,17.00
2023-03-06T04:37:51.691Z,17.83
2023-03-06T04:40:25.069Z,19.50
2023-03-06T04:42:53.549Z,18.03
2023-03-06T04:45:21.848Z,18.33
2023-03-06T04:47:50.432Z,17.00
2023-03-06T04:50:19.230Z,43.97
2023-03-06T04:52:47.972Z,20.63
2023-03-06T04:55:18.797Z,38.50
2023-03-06T04:57:48.298Z,24.10
2023-03-06T05:00:18.697Z,18.73
2023-03-06T05:02:47.852Z,17.23
2023-03-06T05:05:17.347Z,15.10
2023-03-06T05:07:46.239Z,16.23
2023-03-06T05:10:16.604Z,16.53
2023-03-06T05:12:46.476Z,16.50
2023-03-06T05:15:15.737Z,16.70
2023-03-06T05:17:44.377Z,15.27
2023-03-06T05:20:14.546Z,16.30
2023-03-06T05:22:43.184Z,15.33
2023-03-06T05:25:12.130Z,15.17
2023-03-06T05:27:40.803Z,16.43
2023-03-06T05:30:13.418Z,14.83
2023-03-06T05:32:42.953Z,15.17
2023-03-06T05:35:18.594Z,14.83
2023-03-06T05:37:47.300Z,13.60
2023-03-06T05:40:17.403Z,14.50
2023-03-06T05:42:45.940Z,14.43
2023-03-06T05:45:15.588Z,16.10
2023-03-06T05:47:44.048Z,14.50
2023-03-06T05:50:14.038Z,14.50
2023-03-06T05:52:42.729Z,14.20
2023-03-06T05:55:13.465Z,13.90
2023-03-06T05:57:41.818Z,15.70
2023-03-06T06:00:11.436Z,15.23
2023-03-06T06:02:44.404Z,17.13
2023-03-06T06:05:13.335Z,17.57
2023-03-06T06:07:42.222Z,15.70
2023-03-06T06:10:12.234Z,15.90
2023-03-06T06:12:41.113Z,16.23
2023-03-06T06:15:10.036Z,17.27
2023-03-06T06:17:38.393Z,16.90
2023-03-06T06:20:10.158Z,22.53
2023-03-06T06:22:38.879Z,28.20
2023-03-06T06:25:09.357Z,20.53
2023-03-06T06:27:38.059Z,20.07
2023-03-06T06:30:08.295Z,18.93
2023-03-06T06:32:37.829Z,18.30
2023-03-06T06:35:08.530Z,17.50
2023-03-06T06:37:37.024Z,18.77
2023-03-06T06:40:06.196Z,19.63
2023-03-06T06:42:39.888Z,19.43
2023-03-06T06:45:10.716Z,18.20
2023-03-06T06:47:41.340Z,18.67
2023-03-06T06:50:13.505Z,17.97
2023-03-06T06:52:41.996Z,17.43
2023-03-06T06:55:12.230Z,19.03
2023-03-06T06:57:41.862Z,17.93
2023-03-06T07:00:13.808Z,17.53
2023-03-06T07:02:42.420Z,16.40
2023-03-06T07:05:12.629Z,15.80
2023-03-06T07:07:40.979Z,15.97
2023-03-06T07:10:16.013Z,46.00
2023-03-06T07:12:44.988Z,49.80
2023-03-06T07:15:15.168Z,25.30
2023-03-06T07:17:43.691Z,20.40
2023-03-06T07:20:13.699Z,17.40
2023-03-06T07:22:50.789Z,17.27
2023-03-06T07:25:22.675Z,16.40
2023-03-06T07:27:54.173Z,18.03
2023-03-06T07:30:23.483Z,20.63
2023-03-06T07:32:55.072Z,19.00
2023-03-06T07:35:26.167Z,21.90
2023-03-06T07:37:54.825Z,22.70
2023-03-06T07:40:24.015Z,23.50
2023-03-06T07:42:56.522Z,25.23
2023-03-06T07:45:36.255Z,24.90
2023-03-06T07:48:05.669Z,24.37
2023-03-06T07:50:36.428Z,25.10
2023-03-06T07:53:04.761Z,27.30
2023-03-06T07:55:33.152Z,27.83
2023-03-06T07:58:01.459Z,28.97
2023-03-06T08:00:29.805Z,31.50
2023-03-06T08:02:58.231Z,30.40
2023-03-06T08:05:26.527Z,32.20
2023-03-06T08:07:56.161Z,30.30
2023-03-06T08:10:24.522Z,30.17
2023-03-06T08:12:52.768Z,29.60
2023-03-06T08:15:21.299Z,43.20
2023-03-06T08:17:50.515Z,31.93
2023-03-06T08:20:19.571Z,30.87
2023-03-06T08:22:49.049Z,29.50
2023-03-06T08:25:18.947Z,27.93
2023-03-06T08:27:47.905Z,66.97
2023-03-06T08:30:16.655Z,35.50
2023-03-06T08:32:45.651Z,27.30
2023-03-06T08:35:14.532Z,28.57
2023-03-06T08:37:42.978Z,26.60
2023-03-06T08:40:12.863Z,24.20
2023-03-06T08:42:42.638Z,27.63
2023-03-06T08:45:11.671Z,25.60
2023-03-06T08:47:40.140Z,24.80
2023-03-06T08:50:09.344Z,25.57
2023-03-06T08:52:37.611Z,25.37
2023-03-06T08:55:07.009Z,25.20
2023-03-06T08:57:35.395Z,24.33
2023-03-06T09:00:08.816Z,24.77
2023-03-06T09:02:38.930Z,25.47
2023-03-06T09:05:08.632Z,24.53
2023-03-06T09:07:37.214Z,25.20
2023-03-06T09:10:06.220Z,25.47
2023-03-06T09:12:47.361Z,23.43
2023-03-06T09:15:20.006Z,22.83
2023-03-06T09:17:48.976Z,49.67
2023-03-06T09:20:17.544Z,32.83
2023-03-06T09:22:45.988Z,23.87
2023-03-06T09:25:20.190Z,24.00
2023-03-06T09:27:58.349Z,22.77
2023-03-06T09:30:31.866Z,20.90
2023-03-06T09:33:00.236Z,19.47
2023-03-06T09:35:28.552Z,21.27
2023-03-06T09:37:56.935Z,18.87
2023-03-06T09:40:35.790Z,22.70
2023-03-06T09:43:04.095Z,22.80
2023-03-06T09:45:37.060Z,20.20
2023-03-06T09:48:14.698Z,23.97
2023-03-06T09:50:47.504Z,22.07
2023-03-06T09:53:33.840Z,18.40
2023-03-06T09:56:04.469Z,21.07
2023-03-06T09:58:38.909Z,20.20
2023-03-06T10:01:17.386Z,19.73
2023-03-06T10:03:50.703Z,18.90
2023-03-06T10:06:24.981Z,18.10
2023-03-06T10:08:58.499Z,18.27
2023-03-06T10:11:33.661Z,13.60
2023-03-06T10:14:15.141Z,14.47
2023-03-06T10:16:44.912Z,13.53
2023-03-06T10:19:16.616Z,14.37
2023-03-06T10:21:52.942Z,14.17
2023-03-06T10:24:45.233Z,17.13
2023-03-06T10:27:23.514Z,18.67
2023-03-06T10:30:03.835Z,18.00
2023-03-06T10:32:49.299Z,17.97
2023-03-06T10:35:21.664Z,18.77
2023-03-06T10:37:50.657Z,18.63
2023-03-06T10:40:21.731Z,18.80
2023-03-06T10:43:01.576Z,18.37
2023-03-06T10:45:49.772Z,18.47
2023-03-06T10:48:23.325Z,17.67
2023-03-06T10:50:53.034Z,18.07
2023-03-06T10:53:23.886Z,18.60
2023-03-06T10:55:55.704Z,20.40
2023-03-06T10:58:27.391Z,18.97
2023-03-06T11:01:05.051Z,16.90
2023-03-06T11:03:35.456Z,17.50
2023-03-06T11:06:07.870Z,18.83
2023-03-06T11:08:36.752Z,18.90
2023-03-06T11:11:07.472Z,18.63
2023-03-06T11:13:37.232Z,20.10
2023-03-06T11:16:15.101Z,19.20
2023-03-06T11:18:58.180Z,19.70
2023-03-06T11:21:31.424Z,19.27
2023-03-06T11:24:07.135Z,18.77
2023-03-06T11:26:46.846Z,19.90
2023-03-06T11:29:33.155Z,19.70
2023-03-06T11:32:10.369Z,19.63
2023-03-06T11:34:50.581Z,20.20
2023-03-06T11:37:29.535Z,18.87
2023-03-06T11:40:06.519Z,17.10
2023-03-06T11:42:40.380Z,18.37
2023-03-06T11:45:23.268Z,18.40
2023-03-06T11:47:59.025Z,17.73
2023-03-06T11:50:34.676Z,16.27
2023-03-06T11:53:04.510Z,15.40
2023-03-06T11:55:44.930Z,24.00
2023-03-06T11:58:47.320Z,18.20
2023-03-06T12:01:23.655Z,15.00
2023-03-06T12:04:02.536Z,16.53
2023-03-06T12:06:41.887Z,15.97
2023-03-06T12:09:26.234Z,13.87
2023-03-06T12:12:11.369Z,15.67
2023-03-06T12:15:09.677Z,15.27
2023-03-06T12:17:55.682Z,15.70
2023-03-06T12:20:36.084Z,15.17
2023-03-06T12:23:18.303Z,14.70
2023-03-06T12:25:54.266Z,15.40
2023-03-06T12:28:38.911Z,15.40
2023-03-06T12:31:31.269Z,20.20
2023-03-06T12:34:14.313Z,21.33
2023-03-06T12:36:53.488Z,18.00
2023-03-06T12:39:36.304Z,16.03
2023-03-06T12:42:23.570Z,15.57
2023-03-06T12:45:03.088Z,16.17
2023-03-06T12:47:37.276Z,16.00
2023-03-06T12:50:18.110Z,15.73
2023-03-06T12:52:48.314Z,14.47
2023-03-06T12:55:23.746Z,13.93
2023-03-06T12:57:53.990Z,14.10
2023-03-06T13:01:04.156Z,14.23
2023-03-06T13:03:45.023Z,12.97
2023-03-06T13:06:26.092Z,14.90
2023-03-06T13:09:23.079Z,14.33
2023-03-06T13:12:24.010Z,14.47
2023-03-06T13:14:58.428Z,14.10
2023-03-06T13:17:44.892Z,13.40
2023-03-06T13:20:35.567Z,12.77
2023-03-06T13:23:44.185Z,13.40
2023-03-06T13:26:31.462Z,12.30
2023-03-06T13:29:00.269Z,13.63
2023-03-06T13:31:51.406Z,12.97
2023-03-06T13:34:36.391Z,12.43
2023-03-06T13:37:38.257Z,13.07
2023-03-06T13:40:30.987Z,26.20
2023-03-06T13:43:23.082Z,33.57
2023-03-06T13:45:52.036Z,21.10
2023-03-06T13:48:47.664Z,14.90
2023-03-06T13:51:24.592Z,14.90
2023-03-06T13:54:21.830Z,13.40
2023-03-06T13:57:25.235Z,13.27
2023-03-06T14:00:11.870Z,13.60
2023-03-06T14:03:12.904Z,14.17
2023-03-06T14:05:49.954Z,12.40
2023-03-06T14:08:20.482Z,11.50
2023-03-06T14:10:58.949Z,11.03
2023-03-06T14:13:38.437Z,10.00
2023-03-06T14:16:20.433Z,10.30
2023-03-06T14:18:50.644Z,8.13
2023-03-06T14:21:30.815Z,9.57
2023-03-06T14:24:01.008Z,10.70
2023-03-06T14:26:33.723Z,10.93
2023-03-06T14:29:03.760Z,11.80
2023-03-06T14:31:34.664Z,12.00
2023-03-06T14:34:06.262Z,10.73
2023-03-06T14:36:43.155Z,11.17
2023-03-06T14:39:15.823Z,10.60
2023-03-06T14:41:44.311Z,13.20
2023-03-06T14:44:21.533Z,24.33
2023-03-06T14:46:51.571Z,28.40
2023-03-06T14:49:21.265Z,19.60
2023-03-06T14:51:53.017Z,16.57
2023-03-06T14:54:25.588Z,16.37
2023-03-06T14:56:59.827Z,14.77
2023-03-06T14:59:31.637Z,13.90
2023-03-06T15:02:02.305Z,12.60
2023-03-06T15:04:36.687Z,13.07
2023-03-06T15:07:11.694Z,14.77
2023-03-06T15:09:44.635Z,14.90
2023-03-06T15:12:35.026Z,14.70
2023-03-06T15:15:05.675Z,15.40
2023-03-06T15:17:41.014Z,13.70
2023-03-06T15:20:43.752Z,13.47
2023-03-06T15:23:20.184Z,13.27
2023-03-06T15:26:02.084Z,12.67
2023-03-06T15:28:37.094Z,14.40
2023-03-06T15:31:20.638Z,14.40
2023-03-06T15:34:16.829Z,12.77
2023-03-06T15:36:47.378Z,13.20
2023-03-06T15:39:35.881Z,13.17
2023-03-06T15:42:15.738Z,21.30
2023-03-06T15:44:44.208Z,15.90
2023-03-06T15:47:13.064Z,14.90
2023-03-06T15:49:41.879Z,13.47
2023-03-06T15:52:10.708Z,12.13
2023-03-06T15:54:40.596Z,12.47
2023-03-06T15:57:20.143Z,13.27
2023-03-06T15:59:48.484Z,11.97
2023-03-06T16:02:18.254Z,11.20
2023-03-06T16:04:47.251Z,11.97
2023-03-06T16:07:16.508Z,12.33
2023-03-06T16:09:46.624Z,11.70
2023-03-06T16:12:17.792Z,10.70
2023-03-06T16:14:47.385Z,10.90
2023-03-06T16:17:16.319Z,12.00
2023-03-06T16:19:45.330Z,11.83
2023-03-06T16:22:14.015Z,10.80
2023-03-06T16:24:43.456Z,11.33
2023-03-06T16:27:18.859Z,12.37
2023-03-06T16:29:47.187Z,11.30
2023-03-06T16:32:15.561Z,12.77
2023-03-06T16:34:43.925Z,13.53
2023-03-06T16:37:14.062Z,13.40
2023-03-06T16:39:42.599Z,12.23
2023-03-06T16:42:11.459Z,12.93
2023-03-06T16:44:41.867Z,13.57
2023-03-06T16:47:11.932Z,13.50
2023-03-06T16:49:40.304Z,14.43
2023-03-06T16:52:09.993Z,12.90
2023-03-06T16:54:38.325Z,13.60
2023-03-06T16:57:06.770Z,13.20
2023-03-06T16:59:35.184Z,13.07
2023-03-06T17:02:05.165Z,12.53
2023-03-06T17:04:33.490Z,13.67
2023-03-06T17:07:01.919Z,13.20
2023-03-06T17:09:30.334Z,13.97
2023-03-06T17:11:58.701Z,12.97
2023-03-06T17:14:27.051Z,13.13
2023-03-06T17:16:55.538Z,12.70
2023-03-06T17:19:25.890Z,14.63
2023-03-06T17:21:54.356Z,12.13
2023-03-06T17:24:22.628Z,14.43
2023-03-06T17:26:51.406Z,14.70
2023-03-06T17:29:19.886Z,14.60
2023-03-06T17:31:48.217Z,16.83
2023-03-06T17:34:16.565Z,21.60
2023-03-06T17:36:46.297Z,33.07
2023-03-06T17:39:15.026Z,27.20
2023-03-06T17:41:45.909Z,20.97
2023-03-06T17:44:16.405Z,16.87
2023-03-06T17:46:45.144Z,14.90
2023-03-06T17:49:13.526Z,14.67
2023-03-06T17:51:41.950Z,13.07
2023-03-06T17:54:11.728Z,13.53
2023-03-06T17:56:40.170Z,14.33
2023-03-06T17:59:08.757Z,13.50
2023-03-06T18:01:38.453Z,12.90
2023-03-06T18:04:07.793Z,13.63
2023-03-06T18:06:36.261Z,13.80
2023-03-06T18:09:05.359Z,14.67
2023-03-06T18:11:35.378Z,13.30
2023-03-06T18:14:05.535Z,15.87
2023-03-06T18:16:34.452Z,13.70
2023-03-06T18:19:03.126Z,15.83
2023-03-06T18:21:31.461Z,15.43
2023-03-06T18:23:59.772Z,13.83
2023-03-06T18:26:29.924Z,13.30
2023-03-06T18:29:03.664Z,14.87
2023-03-06T18:31:34.650Z,15.47
2023-03-06T18:34:05.932Z,14.83
2023-03-06T18:36:35.101Z,13.30
2023-03-06T18:39:04.775Z,14.93
2023-03-06T18:41:33.761Z,15.00
2023-03-06T18:44:03.894Z,13.93
2023-03-06T18:46:34.291Z,15.00
2023-03-06T18:49:03.419Z,15.57
2023-03-06T18:51:32.171Z,15.20
2023-03-06T18:54:01.772Z,15.50
2023-03-06T18:56:30.366Z,14.70
2023-03-06T18:59:04.444Z,14.10
2023-03-06T19:01:33.488Z,14.50
2023-03-06T19:04:02.591Z,15.23
2023-03-06T19:06:31.524Z,14.37
2023-03-06T19:09:01.837Z,15.17
2023-03-06T19:11:30.843Z,37.67
2023-03-06T19:13:59.732Z,30.37
2023-03-06T19:16:31.190Z,21.60
2023-03-06T19:19:00.258Z,17.60
2023-03-06T19:21:29.540Z,15.93
2023-03-06T19:23:58.564Z,15.10
2023-03-06T19:26:28.044Z,14.40
2023-03-06T19:28:56.396Z,14.17
2023-03-06T19:31:27.154Z,15.50
2023-03-06T19:33:57.716Z,14.07
2023-03-06T19:36:33.498Z,13.87
2023-03-06T19:39:04.264Z,15.40
2023-03-06T19:41:32.712Z,14.53
2023-03-06T19:44:02.694Z,13.50
2023-03-06T19:46:31.932Z,13.67
2023-03-06T19:49:03.474Z,13.40
2023-03-06T19:51:31.963Z,14.13
2023-03-06T19:54:00.344Z,14.77
2023-03-06T19:56:31.936Z,13.67
2023-03-06T19:59:00.253Z,14.53
2023-03-06T20:01:29.771Z,14.70
2023-03-06T20:03:59.736Z,14.53
2023-03-06T20:06:34.456Z,14.60
2023-03-06T20:09:04.542Z,15.20
2023-03-06T20:11:33.073Z,15.17
2023-03-06T20:14:03.830Z,15.07
2023-03-06T20:16:33.343Z,16.27
2023-03-06T20:19:02.739Z,14.90
2023-03-06T20:21:35.458Z,15.60
2023-03-06T20:24:04.430Z,15.93
2023-03-06T20:26:34.156Z,15.63
2023-03-06T20:29:02.874Z,14.93
2023-03-06T20:31:31.810Z,16.10
2023-03-06T20:34:00.678Z,15.50
2023-03-06T20:36:31.161Z,15.63
2023-03-06T20:39:02.525Z,16.80
2023-03-06T20:41:32.214Z,16.50
2023-03-06T20:44:01.875Z,15.57
2023-03-06T20:46:31.320Z,16.17
2023-03-06T20:49:00.176Z,15.70
2023-03-06T20:51:31.641Z,15.80
2023-03-06T20:54:02.871Z,14.80
2023-03-06T20:56:33.515Z,16.27
2023-03-06T20:59:02.406Z,15.73
2023-03-06T21:01:32.812Z,16.33
2023-03-06T21:04:02.234Z,17.17
2023-03-06T21:06:31.506Z,16.50
2023-03-06T21:09:02.121Z,17.10
2023-03-06T21:11:30.491Z,17.57
2023-03-06T21:13:59.191Z,16.90
2023-03-06T21:16:28.992Z,18.60
2023-03-06T21:18:58.598Z,17.93
2023-03-06T21:21:29.039Z,17.23
2023-03-06T21:23:57.563Z,17.00
2023-03-06T21:26:29.575Z,20.03
2023-03-06T21:28:59.192Z,17.80
2023-03-06T21:31:28.412Z,16.80
2023-03-06T21:33:56.904Z,18.30
2023-03-06T21:36:25.360Z,17.33
2023-03-06T21:38:53.958Z,17.40
2023-03-06T21:41:25.292Z,17.27
2023-03-06T21:43:59.537Z,18.10
2023-03-06T21:46:28.948Z,17.23
2023-03-06T21:48:58.175Z,17.43
2023-03-06T21:51:27.689Z,17.93
2023-03-06T21:53:56.833Z,17.07
2023-03-06T21:56:28.461Z,19.27
2023-03-06T21:58:58.608Z,17.10
2023-03-06T22:01:30.087Z,17.40
2023-03-06T22:04:00.066Z,17.13
2023-03-06T22:06:30.302Z,17.70
2023-03-06T22:09:00.016Z,18.93
2023-03-06T22:11:34.288Z,16.33
2023-03-06T22:14:04.353Z,17.10
2023-03-06T22:16:33.286Z,16.17
2023-03-06T22:19:01.762Z,15.40
2023-03-06T22:21:30.121Z,17.67
2023-03-06T22:24:00.720Z,16.30
2023-03-06T22:26:30.262Z,16.17
2023-03-06T22:28:58.907Z,15.80
2023-03-06T22:31:29.756Z,15.70
2023-03-06T22:33:59.646Z,15.40
2023-03-06T22:36:30.341Z,15.07
2023-03-06T22:39:00.388Z,14.47
2023-03-06T22:41:28.836Z,14.63
2023-03-06T22:43:57.862Z,14.03
2023-03-06T22:46:28.357Z,15.00
2023-03-06T22:48:57.475Z,12.03
2023-03-06T22:51:26.426Z,12.73
2023-03-06T22:53:55.439Z,12.90
2023-03-06T22:56:24.563Z,11.83
2023-03-06T22:58:52.904Z,11.97
2023-03-06T23:01:23.213Z,10.40
2023-03-06T23:03:54.204Z,10.37
2023-03-06T23:06:24.110Z,9.87
2023-03-06T23:08:54.267Z,9.33
2023-03-06T23:11:23.191Z,9.93
2023-03-06T23:14:12.137Z,10.27
2023-03-06T23:16:58.960Z,9.00
2023-03-06T23:19:50.539Z,8.07
2023-03-06T23:22:37.686Z,8.10
2023-03-06T23:25:24.551Z,8.83
2023-03-06T23:27:52.867Z,8.40
2023-03-06T23:30:21.357Z,6.90
2023-03-06T23:32:49.731Z,7.47
2023-03-06T23:35:19.415Z,6.10
2023-03-06T23:37:47.744Z,6.93
2023-03-06T23:40:16.924Z,7.40
2023-03-06T23:42:45.763Z,6.63
2023-03-06T23:45:13.996Z,6.70
2023-03-06T23:47:42.300Z,6.83
2023-03-06T23:50:11.789Z,5.90
2023-03-06T23:52:41.480Z,5.80
2023-03-06T23:55:10.300Z,6.43
2023-03-06T23:57:38.558Z,6.17
